createdAt,value
2023-12-11T00:00:16.124Z,3.17
2023-12-11T00:02:45.925Z,7.25
2023-12-11T00:05:17.786Z,2.50
2023-12-11T00:07:46.264Z,1.30
2023-12-11T00:10:16.077Z,4.68
2023-12-11T00:12:44.815Z,3.53
2023-12-11T00:15:14.390Z,3.15
2023-12-11T00:17:43.064Z,3.65
2023-12-11T00:20:13.149Z,7.15
2023-12-11T00:22:43.373Z,9.77
2023-12-11T00:25:12.676Z,2.78
2023-12-11T00:27:41.693Z,5.68
2023-12-11T00:30:11.526Z,7.80
2023-12-11T00:32:40.561Z,6.57
2023-12-11T00:35:09.524Z,5.93
2023-12-11T00:37:38.290Z,5.15
2023-12-11T00:40:10.282Z,6.50
2023-12-11T00:42:38.971Z,5.18
2023-12-11T00:45:08.211Z,5.82
2023-12-11T00:47:36.764Z,6.00
2023-12-11T00:50:07.335Z,3.20
2023-12-11T00:52:36.363Z,6.32
2023-12-11T00:55:04.828Z,2.80
2023-12-11T00:57:34.769Z,3.30
2023-12-11T01:00:03.640Z,3.60
2023-12-11T01:02:32.307Z,4.80
2023-12-11T01:05:00.676Z,7.18
2023-12-11T01:07:29.532Z,3.72
2023-12-11T01:09:58.062Z,4.22
2023-12-11T01:12:26.703Z,10.02
2023-12-11T01:14:56.851Z,3.75
2023-12-11T01:17:38.163Z,4.55
2023-12-11T01:20:10.684Z,2.42
2023-12-11T01:22:38.975Z,3.17
2023-12-11T01:25:10.401Z,2.97
2023-12-11T01:27:39.099Z,3.13
2023-12-11T01:30:12.501Z,1.65
2023-12-11T01:32:41.201Z,4.22
2023-12-11T01:35:10.637Z,4.20
2023-12-11T01:37:39.043Z,4.18
2023-12-11T01:40:09.256Z,3.78
2023-12-11T01:42:38.265Z,1.95
2023-12-11T01:45:09.770Z,5.85
2023-12-11T01:47:38.678Z,3.42
2023-12-11T01:50:09.803Z,2.65
2023-12-11T01:52:39.172Z,1.17
2023-12-11T01:55:09.876Z,6.38
2023-12-11T01:57:38.671Z,1.77
2023-12-11T02:00:10.497Z,2.65
2023-12-11T02:02:40.307Z,3.50
2023-12-11T02:05:09.416Z,3.80
2023-12-11T02:07:40.002Z,1.88
2023-12-11T02:10:12.168Z,6.18
2023-12-11T02:12:41.444Z,2.25
2023-12-11T02:15:11.919Z,6.80
2023-12-11T02:17:40.388Z,3.58
2023-12-11T02:20:09.732Z,3.10
2023-12-11T02:22:38.797Z,1.42
2023-12-11T02:25:11.334Z,4.25
2023-12-11T02:27:41.400Z,5.72
2023-12-11T02:30:10.242Z,4.07
2023-12-11T02:32:38.928Z,4.78
2023-12-11T02:35:09.031Z,1.75
2023-12-11T02:37:37.360Z,5.53
2023-12-11T02:40:08.700Z,4.35
2023-12-11T02:42:38.148Z,2.92
2023-12-11T02:45:09.571Z,4.63
2023-12-11T02:47:39.039Z,1.50
2023-12-11T02:50:09.909Z,7.80
2023-12-11T02:52:40.448Z,5.38
2023-12-11T02:55:09.883Z,1.30
2023-12-11T02:57:38.613Z,2.30
2023-12-11T03:00:10.643Z,3.40
2023-12-11T03:02:39.804Z,5.43
2023-12-11T03:05:08.514Z,3.13
2023-12-11T03:07:37.737Z,2.58
2023-12-11T03:10:06.741Z,4.00
2023-12-11T03:12:35.243Z,10.60
2023-12-11T03:15:04.483Z,3.92
2023-12-11T03:17:34.559Z,4.78
2023-12-11T03:20:03.213Z,3.42
2023-12-11T03:22:31.787Z,3.83
2023-12-11T03:25:00.348Z,6.00
2023-12-11T03:27:29.004Z,4.03
2023-12-11T03:29:58.216Z,3.03
2023-12-11T03:32:27.076Z,4.57
2023-12-11T03:34:56.939Z,5.40
2023-12-11T03:37:26.038Z,3.80
2023-12-11T03:39:55.984Z,3.60
2023-12-11T03:42:24.258Z,5.97
2023-12-11T03:44:53.049Z,6.45
2023-12-11T03:47:22.569Z,4.00
2023-12-11T03:49:52.261Z,4.10
2023-12-11T03:52:21.957Z,2.95
2023-12-11T03:54:50.366Z,3.42
2023-12-11T03:57:19.075Z,4.50
2023-12-11T03:59:47.758Z,6.68
2023-12-11T04:02:16.404Z,5.93
2023-12-11T04:04:45.238Z,9.43
2023-12-11T04:07:14.366Z,4.95
2023-12-11T04:09:47.332Z,6.35
2023-12-11T04:12:15.885Z,6.45
2023-12-11T04:14:44.309Z,5.80
2023-12-11T04:17:12.583Z,5.20
2023-12-11T04:19:41.507Z,3.83
2023-12-11T04:22:10.327Z,4.45
2023-12-11T04:24:38.944Z,3.70
2023-12-11T04:27:08.570Z,4.05
2023-12-11T04:29:36.851Z,8.02
2023-12-11T04:32:06.169Z,4.25
2023-12-11T04:34:34.678Z,2.05
2023-12-11T04:37:03.316Z,5.30
2023-12-11T04:39:31.723Z,4.05
2023-12-11T04:42:00.345Z,3.47
2023-12-11T04:44:31.224Z,7.22
2023-12-11T04:46:59.551Z,4.70
2023-12-11T04:49:28.237Z,8.05
2023-12-11T04:51:56.893Z,5.60
2023-12-11T04:54:25.263Z,5.47
2023-12-11T04:56:53.913Z,6.10
2023-12-11T04:59:22.644Z,3.42
2023-12-11T05:01:52.527Z,9.25
2023-12-11T05:04:21.332Z,5.90
2023-12-11T05:06:49.781Z,8.05
2023-12-11T05:09:18.438Z,7.70
2023-12-11T05:11:46.996Z,8.32
2023-12-11T05:14:16.519Z,5.72
2023-12-11T05:16:45.015Z,10.75
2023-12-11T05:19:15.115Z,4.70
2023-12-11T05:21:45.369Z,9.63
2023-12-11T05:24:14.490Z,5.65
2023-12-11T05:26:43.099Z,7.97
2023-12-11T05:29:11.785Z,5.40
2023-12-11T05:31:41.683Z,8.75
2023-12-11T05:34:10.686Z,4.93
2023-12-11T05:36:40.454Z,6.05
2023-12-11T05:39:09.157Z,6.72
2023-12-11T05:41:37.577Z,5.47
2023-12-11T05:44:09.484Z,7.00
2023-12-11T05:46:40.382Z,7.55
2023-12-11T05:49:08.903Z,5.43
2023-12-11T05:51:37.316Z,4.28
2023-12-11T05:54:07.377Z,4.93
2023-12-11T05:56:37.661Z,11.13
2023-12-11T05:59:06.412Z,8.50
2023-12-11T06:01:34.941Z,7.50
2023-12-11T06:04:04.846Z,4.93
2023-12-11T06:06:33.173Z,9.63
2023-12-11T06:09:01.592Z,7.57
2023-12-11T06:11:32.412Z,6.25
2023-12-11T06:14:00.723Z,7.45
2023-12-11T06:16:29.628Z,3.95
2023-12-11T06:18:57.886Z,4.38
2023-12-11T06:21:27.606Z,3.83
2023-12-11T06:23:56.076Z,7.53
2023-12-11T06:26:34.440Z,7.60
2023-12-11T06:29:03.305Z,5.43
2023-12-11T06:31:32.647Z,9.15
2023-12-11T06:34:01.468Z,6.05
2023-12-11T06:36:30.339Z,6.00
2023-12-11T06:38:59.063Z,7.22
2023-12-11T06:41:27.635Z,2.35
2023-12-11T06:43:58.633Z,4.75
2023-12-11T06:46:31.058Z,4.22
2023-12-11T06:49:00.157Z,9.07
2023-12-11T06:51:30.472Z,5.50
2023-12-11T06:54:00.692Z,5.97
2023-12-11T06:56:32.485Z,5.00
2023-12-11T06:59:03.293Z,7.18
2023-12-11T07:01:34.873Z,4.90
2023-12-11T07:04:04.750Z,6.78
2023-12-11T07:06:33.422Z,4.07
2023-12-11T07:09:02.144Z,7.75
2023-12-11T07:11:30.669Z,3.55
2023-12-11T07:13:59.723Z,4.78
2023-12-11T07:16:29.800Z,7.03
2023-12-11T07:19:01.821Z,3.30
2023-12-11T07:21:30.764Z,2.45
2023-12-11T07:23:59.211Z,5.45
2023-12-11T07:26:27.532Z,2.83
2023-12-11T07:28:56.798Z,4.90
2023-12-11T07:31:26.374Z,7.63
2023-12-11T07:33:57.279Z,7.82
2023-12-11T07:36:26.551Z,5.10
2023-12-11T07:38:54.943Z,6.50
2023-12-11T07:41:24.658Z,2.40
2023-12-11T07:43:53.257Z,4.97
2023-12-11T07:46:23.413Z,4.05
2023-12-11T07:48:53.152Z,7.28
2023-12-11T07:51:24.738Z,4.53
2023-12-11T07:53:56.640Z,4.00
2023-12-11T07:56:25.948Z,7.97
2023-12-11T07:58:55.600Z,8.13
2023-12-11T08:01:24.194Z,8.40
2023-12-11T08:03:53.137Z,5.07
2023-12-11T08:06:26.901Z,7.72
2023-12-11T08:08:58.320Z,7.93
2023-12-11T08:11:28.662Z,10.88
2023-12-11T08:13:57.657Z,6.47
2023-12-11T08:16:26.510Z,10.00
2023-12-11T08:18:55.461Z,6.20
2023-12-11T08:21:25.470Z,7.72
2023-12-11T08:23:53.768Z,13.85
2023-12-11T08:26:23.235Z,9.48
2023-12-11T08:28:52.240Z,5.35
2023-12-11T08:31:20.950Z,7.43
2023-12-11T08:33:49.499Z,4.95
2023-12-11T08:36:18.218Z,2.55
2023-12-11T08:38:48.120Z,6.63
2023-12-11T08:41:17.991Z,4.28
2023-12-11T08:43:47.951Z,6.00
2023-12-11T08:46:16.710Z,4.60
2023-12-11T08:48:46.112Z,13.15
2023-12-11T08:51:14.860Z,8.55
2023-12-11T08:53:44.014Z,10.38
2023-12-11T08:56:16.157Z,12.75
2023-12-11T08:58:44.904Z,7.07
2023-12-11T09:01:13.623Z,6.85
2023-12-11T09:03:43.880Z,13.20
2023-12-11T09:06:14.631Z,10.00
2023-12-11T09:08:43.772Z,6.78
2023-12-11T09:11:13.623Z,5.10
2023-12-11T09:13:42.790Z,8.32
2023-12-11T09:16:12.413Z,14.27
2023-12-11T09:18:41.582Z,3.22
2023-12-11T09:21:10.830Z,5.50
2023-12-11T09:23:39.704Z,8.85
2023-12-11T09:26:08.070Z,10.70
2023-12-11T09:28:48.194Z,6.15
2023-12-11T09:31:21.625Z,6.85
2023-12-11T09:33:50.439Z,6.90
2023-12-11T09:36:20.206Z,7.03
2023-12-11T09:38:48.872Z,11.45
2023-12-11T09:41:17.735Z,5.45
2023-12-11T09:43:51.703Z,10.35
2023-12-11T09:48:50.723Z,3.40
2023-12-11T09:51:19.778Z,6.10
2023-12-11T09:53:49.706Z,9.32
2023-12-11T09:56:19.645Z,9.57
2023-12-11T09:58:50.618Z,8.77
2023-12-11T10:01:20.885Z,6.35
2023-12-11T10:03:49.670Z,8.10
2023-12-11T10:06:18.262Z,9.77
2023-12-11T10:08:48.446Z,7.97
2023-12-11T10:11:19.500Z,8.18
2023-12-11T10:13:51.275Z,5.20
2023-12-11T10:16:31.271Z,6.97
2023-12-11T10:19:01.658Z,8.90
2023-12-11T10:21:40.175Z,9.70
2023-12-11T10:24:12.491Z,10.93
2023-12-11T10:26:46.734Z,11.43
2023-12-11T10:29:27.598Z,5.63
2023-12-11T10:32:02.891Z,6.95
2023-12-11T10:34:49.319Z,10.52
2023-12-11T10:37:18.844Z,6.05
2023-12-11T10:39:57.627Z,14.18
2023-12-11T10:42:26.910Z,9.00
2023-12-11T10:44:57.901Z,5.20
2023-12-11T10:47:26.493Z,6.43
2023-12-11T10:50:03.913Z,7.85
2023-12-11T10:52:33.053Z,11.90
2023-12-11T10:55:02.477Z,8.23
2023-12-11T10:57:33.375Z,8.32
2023-12-11T11:00:14.842Z,9.55
2023-12-11T11:02:47.760Z,7.07
2023-12-11T11:05:17.809Z,11.73
2023-12-11T11:07:53.612Z,7.30
2023-12-11T11:10:23.824Z,9.43
2023-12-11T11:12:58.410Z,13.85
2023-12-11T11:15:29.944Z,5.57
2023-12-11T11:18:03.150Z,12.35
2023-12-11T11:20:33.059Z,10.02
2023-12-11T11:23:23.632Z,9.85
2023-12-11T11:25:54.465Z,16.00
2023-12-11T11:28:43.244Z,14.45
2023-12-11T11:31:23.432Z,9.48
2023-12-11T11:33:58.404Z,14.13
2023-12-11T11:36:50.020Z,10.00
2023-12-11T11:39:18.300Z,9.68
2023-12-11T11:41:48.030Z,7.85
2023-12-11T11:44:17.583Z,15.48
2023-12-11T11:46:55.715Z,17.42
2023-12-11T11:49:36.663Z,10.93
2023-12-11T11:52:07.377Z,10.80
2023-12-11T11:54:39.616Z,8.05
2023-12-11T11:57:08.578Z,10.05
2023-12-11T11:59:44.411Z,14.98
2023-12-11T12:02:13.928Z,16.83
2023-12-11T12:04:42.913Z,9.77
2023-12-11T12:07:11.412Z,16.48
2023-12-11T12:09:40.319Z,13.90
2023-12-11T12:12:15.832Z,11.52
2023-12-11T12:14:44.420Z,8.48
2023-12-11T12:17:14.852Z,14.18
2023-12-11T12:19:43.325Z,13.55
2023-12-11T12:22:14.941Z,11.65
2023-12-11T12:24:49.945Z,5.22
2023-12-11T12:27:24.063Z,10.07
2023-12-11T12:29:53.287Z,8.80
2023-12-11T12:32:23.799Z,8.25
2023-12-11T12:34:55.901Z,17.30
2023-12-11T12:37:24.614Z,5.00
2023-12-11T12:39:58.201Z,7.75
2023-12-11T12:42:31.563Z,6.35
2023-12-11T12:45:00.669Z,11.48
2023-12-11T12:47:33.516Z,7.47
2023-12-11T12:50:08.130Z,8.77
2023-12-11T12:52:38.796Z,13.63
2023-12-11T12:55:08.474Z,12.85
2023-12-11T12:57:38.185Z,6.75
2023-12-11T13:00:08.143Z,10.30
2023-12-11T13:02:38.078Z,11.88
2023-12-11T13:05:08.558Z,8.40
2023-12-11T13:07:37.050Z,11.45
2023-12-11T13:10:12.425Z,10.52
2023-12-11T13:12:40.894Z,6.45
2023-12-11T13:15:11.034Z,9.57
2023-12-11T13:17:40.936Z,8.65
2023-12-11T13:20:11.108Z,11.20
2023-12-11T13:22:41.203Z,8.82
2023-12-11T13:25:10.600Z,11.30
2023-12-11T13:27:39.168Z,12.02
2023-12-11T13:30:09.629Z,8.63
2023-12-11T13:32:40.672Z,10.55
2023-12-11T13:35:10.303Z,10.90
2023-12-11T13:37:39.268Z,10.85
2023-12-11T13:40:09.427Z,6.47
2023-12-11T13:42:37.995Z,9.27
2023-12-11T13:45:08.297Z,7.68
2023-12-11T13:47:36.978Z,6.35
2023-12-11T13:50:08.874Z,14.13
2023-12-11T13:52:37.457Z,7.63
2023-12-11T13:55:06.525Z,9.45
2023-12-11T13:57:35.933Z,5.75
2023-12-11T14:00:05.515Z,9.55
2023-12-11T14:02:59.460Z,13.30
2023-12-11T14:05:24.228Z,6.93
2023-12-11T14:07:54.733Z,8.20
2023-12-11T14:10:24.642Z,8.63
2023-12-11T14:12:53.317Z,9.75
2023-12-11T14:15:25.019Z,4.00
2023-12-11T14:17:53.936Z,12.18
2023-12-11T14:20:24.797Z,9.00
2023-12-11T14:22:53.462Z,6.95
2023-12-11T14:25:23.204Z,7.47
2023-12-11T14:27:51.774Z,7.50
2023-12-11T14:30:21.088Z,7.00
2023-12-11T14:32:50.232Z,8.15
2023-12-11T14:35:19.464Z,11.20
2023-12-11T14:37:49.201Z,5.65
2023-12-11T14:40:18.281Z,13.25
2023-12-11T14:42:49.200Z,3.85
2023-12-11T14:45:18.044Z,6.38
2023-12-11T14:47:46.742Z,4.93
2023-12-11T14:50:18.292Z,6.95
2023-12-11T14:52:48.342Z,9.15
2023-12-11T14:55:25.016Z,7.03
2023-12-11T14:57:54.778Z,8.68
2023-12-11T15:00:23.860Z,9.82
2023-12-11T15:02:52.256Z,7.50
2023-12-11T15:05:20.807Z,5.90
2023-12-11T15:07:51.721Z,3.85
2023-12-11T15:10:20.359Z,8.40
2023-12-11T15:12:48.673Z,7.72
2023-12-11T15:15:17.952Z,10.07
2023-12-11T15:17:46.744Z,8.35
2023-12-11T15:20:16.495Z,7.05
2023-12-11T15:22:45.435Z,9.48
2023-12-11T15:25:15.847Z,12.68
2023-12-11T15:27:46.729Z,5.35
2023-12-11T15:30:15.621Z,11.93
2023-12-11T15:32:49.411Z,8.25
2023-12-11T15:35:19.099Z,8.07
2023-12-11T15:37:47.793Z,11.35
2023-12-11T15:40:18.681Z,8.82
2023-12-11T15:42:47.430Z,13.40
2023-12-11T15:45:17.309Z,18.48
2023-12-11T15:48:00.734Z,5.32
2023-12-11T15:50:35.820Z,8.05
2023-12-11T15:53:06.131Z,4.65
2023-12-11T15:55:35.889Z,10.00
2023-12-11T15:58:08.177Z,9.25
2023-12-11T16:00:37.618Z,9.43
2023-12-11T16:03:06.710Z,8.27
2023-12-11T16:05:35.207Z,4.82
2023-12-11T16:08:03.812Z,9.45
2023-12-11T16:10:32.277Z,7.85
2023-12-11T16:13:02.931Z,6.65
2023-12-11T16:15:32.532Z,5.45
2023-12-11T16:18:01.112Z,9.27
2023-12-11T16:20:29.757Z,13.68
2023-12-11T16:22:58.364Z,8.35
2023-12-11T16:25:27.362Z,8.13
2023-12-11T16:27:56.171Z,7.30
2023-12-11T16:30:26.487Z,9.48
2023-12-11T16:32:55.208Z,11.80
2023-12-11T16:35:23.775Z,11.80
2023-12-11T16:37:53.233Z,9.95
2023-12-11T16:40:21.966Z,13.20
2023-12-11T16:42:50.706Z,9.32
2023-12-11T16:45:19.689Z,9.10
2023-12-11T16:47:55.248Z,10.70
2023-12-11T16:50:25.674Z,8.25
2023-12-11T16:52:54.172Z,6.30
2023-12-11T16:55:22.772Z,9.18
2023-12-11T16:57:51.785Z,11.55
2023-12-11T17:00:21.783Z,10.43
2023-12-11T17:02:52.060Z,6.45
2023-12-11T17:05:21.034Z,11.43
2023-12-11T17:07:49.465Z,14.35
2023-12-11T17:10:18.118Z,10.68
2023-12-11T17:12:47.049Z,8.57
2023-12-11T17:15:16.007Z,7.55
2023-12-11T17:17:44.751Z,10.68
2023-12-11T17:20:14.821Z,16.08
2023-12-11T17:22:43.612Z,14.00
2023-12-11T17:25:12.063Z,13.65
2023-12-11T17:27:40.522Z,9.65
2023-12-11T17:30:09.860Z,13.13
2023-12-11T17:32:38.320Z,14.05
2023-12-11T17:35:07.626Z,20.88
2023-12-11T17:37:38.322Z,13.30
2023-12-11T17:40:09.065Z,11.73
2023-12-11T17:42:37.696Z,14.35
2023-12-11T17:45:07.417Z,14.65
2023-12-11T17:47:35.887Z,13.75
2023-12-11T17:50:05.080Z,20.10
2023-12-11T17:52:35.244Z,16.40
2023-12-11T17:55:07.432Z,16.58
2023-12-11T17:57:36.282Z,16.33
2023-12-11T18:00:06.122Z,13.68
2023-12-11T18:02:34.766Z,13.10
2023-12-11T18:05:03.147Z,12.10
2023-12-11T18:07:31.936Z,8.23
2023-12-11T18:10:00.574Z,11.63
2023-12-11T18:12:30.639Z,18.08
2023-12-11T18:15:00.625Z,15.10
2023-12-11T18:17:29.891Z,12.30
2023-12-11T18:19:59.568Z,15.85
2023-12-11T18:22:29.243Z,14.80
2023-12-11T18:24:57.678Z,7.97
2023-12-11T18:27:28.846Z,17.15
2023-12-11T18:30:00.266Z,10.45
2023-12-11T18:32:29.326Z,20.67
2023-12-11T18:35:00.085Z,20.23
2023-12-11T18:37:29.242Z,9.63
2023-12-11T18:39:58.306Z,13.48
2023-12-11T18:42:26.675Z,13.30
2023-12-11T18:44:55.064Z,8.10
2023-12-11T18:47:25.389Z,9.18
2023-12-11T18:49:54.192Z,11.60
2023-12-11T18:52:22.844Z,12.32
2023-12-11T18:54:51.352Z,15.70
2023-12-11T18:57:20.673Z,11.18
2023-12-11T18:59:49.276Z,19.02
2023-12-11T19:02:18.606Z,14.23
2023-12-11T19:04:48.517Z,19.00
2023-12-11T19:07:16.764Z,11.13
2023-12-11T19:09:45.067Z,17.33
2023-12-11T19:12:13.520Z,18.90
2023-12-11T19:14:42.528Z,18.30
2023-12-11T19:17:11.141Z,14.52
2023-12-11T19:19:49.010Z,17.52
2023-12-11T19:22:19.091Z,15.85
2023-12-11T19:24:47.743Z,14.15
2023-12-11T19:27:16.289Z,17.23
2023-12-11T19:29:45.882Z,13.68
2023-12-11T19:34:42.625Z,20.65
2023-12-11T19:37:11.182Z,10.20
2023-12-11T19:39:40.748Z,14.27
2023-12-11T19:42:09.791Z,12.63
2023-12-11T19:44:40.762Z,11.98
2023-12-11T19:47:09.956Z,8.85
2023-12-11T19:49:39.231Z,21.40
2023-12-11T19:52:08.800Z,12.50
2023-12-11T19:54:41.147Z,14.20
2023-12-11T19:57:18.160Z,17.48
2023-12-11T19:59:46.526Z,18.65
2023-12-11T20:02:14.918Z,20.30
2023-12-11T20:04:44.440Z,27.70
2023-12-11T20:07:14.079Z,18.90
2023-12-11T20:09:46.176Z,13.52
2023-12-11T20:12:16.266Z,21.48
2023-12-11T20:14:44.971Z,16.85
2023-12-11T20:17:15.221Z,14.43
2023-12-11T20:19:43.859Z,13.70
2023-12-11T20:22:16.518Z,19.08
2023-12-11T20:24:45.662Z,16.40
2023-12-11T20:27:15.684Z,18.23
2023-12-11T20:29:44.656Z,20.30
2023-12-11T20:32:13.547Z,20.60
2023-12-11T20:34:42.798Z,15.77
2023-12-11T20:37:13.218Z,15.57
2023-12-11T20:39:44.918Z,18.63
2023-12-11T20:42:14.161Z,16.27
2023-12-11T20:44:44.058Z,14.50
2023-12-11T20:47:12.501Z,13.57
2023-12-11T20:49:41.641Z,18.80
2023-12-11T20:52:11.332Z,17.48
2023-12-11T20:54:40.171Z,15.63
2023-12-11T20:57:08.859Z,18.83
2023-12-11T20:59:37.117Z,19.42
2023-12-11T21:02:07.823Z,18.55
2023-12-11T21:04:36.694Z,21.48
2023-12-11T21:07:05.647Z,19.30
2023-12-11T21:09:34.224Z,27.15
2023-12-11T21:12:02.843Z,17.40
2023-12-11T21:14:31.633Z,15.57
2023-12-11T21:16:59.820Z,12.27
2023-12-11T21:19:29.861Z,13.00
2023-12-11T21:21:58.605Z,20.42
2023-12-11T21:24:26.904Z,19.67
2023-12-11T21:26:56.125Z,20.65
2023-12-11T21:29:25.104Z,19.38
2023-12-11T21:31:54.306Z,25.83
2023-12-11T21:34:23.240Z,23.60
2023-12-11T21:36:52.867Z,23.23
2023-12-11T21:39:22.826Z,26.13
2023-12-11T21:41:51.989Z,16.25
2023-12-11T21:44:21.477Z,18.08
2023-12-11T21:46:49.899Z,17.17
2023-12-11T21:49:20.855Z,18.23
2023-12-11T21:51:53.077Z,31.33
2023-12-11T21:54:22.832Z,19.17
2023-12-11T21:56:52.699Z,22.13
2023-12-11T21:59:28.866Z,19.92
2023-12-11T22:02:03.943Z,23.77
2023-12-11T22:04:32.245Z,21.52
2023-12-11T22:07:02.376Z,23.73
2023-12-11T22:09:31.954Z,21.38
2023-12-11T22:12:00.486Z,14.57
2023-12-11T22:14:29.279Z,18.25
2023-12-11T22:16:57.951Z,22.65
2023-12-11T22:19:26.221Z,19.95
2023-12-11T22:21:54.838Z,22.60
2023-12-11T22:24:24.491Z,11.35
2023-12-11T22:26:52.938Z,17.38
2023-12-11T22:29:21.223Z,20.50
2023-12-11T22:31:49.588Z,21.67
2023-12-11T22:34:18.062Z,13.90
2023-12-11T22:36:46.458Z,19.88
2023-12-11T22:39:14.962Z,27.45
2023-12-11T22:41:46.421Z,20.42
2023-12-11T22:44:15.645Z,21.83
2023-12-11T22:46:45.037Z,20.35
2023-12-11T22:49:13.392Z,26.63
2023-12-11T22:51:44.384Z,19.55
2023-12-11T22:54:12.696Z,14.55
2023-12-11T22:56:41.064Z,19.58
2023-12-11T22:59:11.615Z,15.68
2023-12-11T23:01:40.235Z,19.40
2023-12-11T23:04:08.789Z,13.98
2023-12-11T23:06:36.935Z,20.02
2023-12-11T23:09:06.091Z,26.80
2023-12-11T23:11:35.088Z,23.52
2023-12-11T23:14:03.692Z,18.70
2023-12-11T23:16:34.377Z,18.23
2023-12-11T23:19:02.872Z,26.75
2023-12-11T23:21:32.608Z,21.65
2023-12-11T23:24:04.138Z,20.27
2023-12-11T23:26:32.252Z,20.95
2023-12-11T23:29:00.525Z,13.52
2023-12-11T23:31:28.938Z,32.15
2023-12-11T23:33:59.114Z,20.08
2023-12-11T23:36:27.808Z,20.05
2023-12-11T23:38:58.311Z,18.67
2023-12-11T23:41:26.680Z,21.13
2023-12-11T23:43:55.624Z,29.27
2023-12-11T23:46:24.285Z,23.77
2023-12-11T23:48:53.234Z,22.02
2023-12-11T23:51:23.457Z,19.83
2023-12-11T23:53:51.973Z,19.95
2023-12-11T23:56:21.524Z,23.40
2023-12-11T23:58:49.858Z,24.15
